sensor_id;sensor_type;location;lat;lon;timestamp;pressure;altitude;pressure_sealevel;temperature;humidity
46366;BME280;72328;49.570;8.722;2023-10-19T00:03:15;97937.25;;;18.03;46.71
46366;BME280;72328;49.570;8.722;2023-10-19T00:07:16;97923.22;;;18.04;46.84
46366;BME280;72328;49.570;8.722;2023-10-19T00:11:16;97922.81;;;18.01;46.71
46366;BME280;72328;49.570;8.722;2023-10-19T00:15:24;97925.78;;;17.98;46.96
46366;BME280;72328;49.570;8.722;2023-10-19T00:19:28;97933.13;;;17.88;47.50
46366;BME280;72328;49.570;8.722;2023-10-19T00:23:29;97951.34;;;17.81;47.36
46366;BME280;72328;49.570;8.722;2023-10-19T00:27:30;97960.75;;;17.82;47.73
46366;BME280;72328;49.570;8.722;2023-10-19T00:31:32;97937.34;;;17.82;47.86
46366;BME280;72328;49.570;8.722;2023-10-19T00:35:40;97941.72;;;17.82;47.81
46366;BME280;72328;49.570;8.722;2023-10-19T00:39:47;97933.88;;;17.75;47.92
46366;BME280;72328;49.570;8.722;2023-10-19T00:43:55;97917.06;;;17.71;48.00
46366;BME280;72328;49.570;8.722;2023-10-19T00:48:03;97910.63;;;17.67;48.31
46366;BME280;72328;49.570;8.722;2023-10-19T00:52:04;97915.00;;;17.67;48.25
46366;BME280;72328;49.570;8.722;2023-10-19T00:56:16;97911.22;;;17.69;48.62
46366;BME280;72328;49.570;8.722;2023-10-19T01:00:20;97893.81;;;17.70;48.72
46366;BME280;72328;49.570;8.722;2023-10-19T01:04:34;97888.84;;;17.75;48.60
46366;BME280;72328;49.570;8.722;2023-10-19T01:08:37;97892.03;;;17.77;48.75
46366;BME280;72328;49.570;8.722;2023-10-19T01:12:42;97878.47;;;17.81;48.78
46366;BME280;72328;49.570;8.722;2023-10-19T01:16:43;97875.66;;;17.89;48.60
46366;BME280;72328;49.570;8.722;2023-10-19T01:20:46;97881.69;;;17.96;48.50
46366;BME280;72328;49.570;8.722;2023-10-19T01:24:55;97868.13;;;18.01;48.51
46366;BME280;72328;49.570;8.722;2023-10-19T01:28:56;97868.34;;;18.06;48.86
46366;BME280;72328;49.570;8.722;2023-10-19T01:33:10;97861.13;;;18.08;48.79
46366;BME280;72328;49.570;8.722;2023-10-19T01:37:15;97868.56;;;18.17;49.02
46366;BME280;72328;49.570;8.722;2023-10-19T01:41:16;97860.34;;;18.20;48.90
46366;BME280;72328;49.570;8.722;2023-10-19T01:45:20;97871.00;;;18.25;48.94
46366;BME280;72328;49.570;8.722;2023-10-19T01:49:23;97864.19;;;18.31;49.26
46366;BME280;72328;49.570;8.722;2023-10-19T01:53:28;97851.63;;;18.34;49.29
46366;BME280;72328;49.570;8.722;2023-10-19T01:57:30;97843.78;;;18.41;49.39
46366;BME280;72328;49.570;8.722;2023-10-19T02:01:31;97835.16;;;18.47;49.33
46366;BME280;72328;49.570;8.722;2023-10-19T02:05:33;97847.63;;;18.51;49.27
46366;BME280;72328;49.570;8.722;2023-10-19T02:09:40;97837.00;;;18.59;49.31
46366;BME280;72328;49.570;8.722;2023-10-19T02:13:41;97831.19;;;18.64;49.39
46366;BME280;72328;49.570;8.722;2023-10-19T02:17:41;97830.00;;;18.66;49.54
46366;BME280;72328;49.570;8.722;2023-10-19T02:21:43;97823.78;;;18.67;49.70
46366;BME280;72328;49.570;8.722;2023-10-19T02:25:48;97822.16;;;18.73;49.70
46366;BME280;72328;49.570;8.722;2023-10-19T02:29:50;97819.16;;;18.76;49.67
46366;BME280;72328;49.570;8.722;2023-10-19T02:33:52;97817.38;;;18.76;50.17
46366;BME280;72328;49.570;8.722;2023-10-19T02:37:59;97804.09;;;18.78;50.10
46366;BME280;72328;49.570;8.722;2023-10-19T02:41:59;97801.31;;;18.79;50.47
46366;BME280;72328;49.570;8.722;2023-10-19T02:46:02;97796.09;;;18.79;50.63
46366;BME280;72328;49.570;8.722;2023-10-19T02:50:04;97788.06;;;18.81;50.70
46366;BME280;72328;49.570;8.722;2023-10-19T02:54:12;97784.06;;;18.85;50.66
46366;BME280;72328;49.570;8.722;2023-10-19T02:58:18;97788.66;;;18.89;50.58
46366;BME280;72328;49.570;8.722;2023-10-19T03:02:19;97783.84;;;18.93;51.20
46366;BME280;72328;49.570;8.722;2023-10-19T03:06:23;97788.84;;;18.94;51.25
46366;BME280;72328;49.570;8.722;2023-10-19T03:10:24;97791.28;;;18.96;51.81
46366;BME280;72328;49.570;8.722;2023-10-19T03:14:34;97781.63;;;18.96;52.54
46366;BME280;72328;49.570;8.722;2023-10-19T03:18:35;97780.03;;;18.95;52.78
46366;BME280;72328;49.570;8.722;2023-10-19T03:22:36;97780.59;;;18.97;52.37
46366;BME280;72328;49.570;8.722;2023-10-19T03:26:39;97781.63;;;19.03;52.22
46366;BME280;72328;49.570;8.722;2023-10-19T03:30:48;97777.41;;;19.08;52.26
46366;BME280;72328;49.570;8.722;2023-10-19T03:34:49;97776.97;;;19.11;51.87
46366;BME280;72328;49.570;8.722;2023-10-19T03:38:51;97771.94;;;19.16;51.80
46366;BME280;72328;49.570;8.722;2023-10-19T03:42:53;97768.13;;;19.19;51.84
46366;BME280;72328;49.570;8.722;2023-10-19T03:46:55;97768.94;;;19.19;51.66
46366;BME280;72328;49.570;8.722;2023-10-19T03:51:05;97757.50;;;19.20;51.56
46366;BME280;72328;49.570;8.722;2023-10-19T03:55:06;97751.47;;;19.20;52.11
46366;BME280;72328;49.570;8.722;2023-10-19T03:59:17;97741.84;;;19.20;51.99
46366;BME280;72328;49.570;8.722;2023-10-19T04:03:17;97737.41;;;19.21;51.92
46366;BME280;72328;49.570;8.722;2023-10-19T04:07:18;97744.28;;;19.22;51.93
46366;BME280;72328;49.570;8.722;2023-10-19T04:11:34;97721.59;;;19.22;52.11
46366;BME280;72328;49.570;8.722;2023-10-19T04:15:48;97724.19;;;19.22;52.12
46366;BME280;72328;49.570;8.722;2023-10-19T04:19:53;97709.34;;;19.23;51.88
46366;BME280;72328;49.570;8.722;2023-10-19T04:23:55;97708.72;;;19.27;51.81
46366;BME280;72328;49.570;8.722;2023-10-19T04:27:57;97713.13;;;19.33;51.83
46366;BME280;72328;49.570;8.722;2023-10-19T04:31:58;97716.09;;;19.37;51.56
46366;BME280;72328;49.570;8.722;2023-10-19T04:35:59;97712.28;;;19.39;51.58
46366;BME280;72328;49.570;8.722;2023-10-19T04:40:01;97696.63;;;19.39;51.59
46366;BME280;72328;49.570;8.722;2023-10-19T04:44:03;97694.00;;;19.39;51.54
46366;BME280;72328;49.570;8.722;2023-10-19T04:48:04;97691.41;;;19.39;51.34
46366;BME280;72328;49.570;8.722;2023-10-19T04:52:04;97701.22;;;19.44;51.21
46366;BME280;72328;49.570;8.722;2023-10-19T04:56:06;97708.88;;;19.45;51.36
46366;BME280;72328;49.570;8.722;2023-10-19T05:00:09;97703.63;;;19.45;51.33
46366;BME280;72328;49.570;8.722;2023-10-19T05:04:13;97691.00;;;19.42;51.44
46366;BME280;72328;49.570;8.722;2023-10-19T05:08:14;97698.81;;;19.42;51.32
46366;BME280;72328;49.570;8.722;2023-10-19T05:12:14;97699.84;;;19.41;51.10
46366;BME280;72328;49.570;8.722;2023-10-19T05:16:15;97700.63;;;19.42;51.27
46366;BME280;72328;49.570;8.722;2023-10-19T05:20:16;97703.47;;;19.40;51.34
46366;BME280;72328;49.570;8.722;2023-10-19T05:24:16;97706.84;;;19.41;51.14
46366;BME280;72328;49.570;8.722;2023-10-19T05:28:18;97700.44;;;19.37;51.39
46366;BME280;72328;49.570;8.722;2023-10-19T05:32:19;97701.25;;;19.37;51.25
46366;BME280;72328;49.570;8.722;2023-10-19T05:36:20;97701.66;;;19.34;51.51
46366;BME280;72328;49.570;8.722;2023-10-19T05:40:21;97704.50;;;19.33;51.45
46366;BME280;72328;49.570;8.722;2023-10-19T05:44:24;97706.28;;;19.32;51.33
46366;BME280;72328;49.570;8.722;2023-10-19T05:48:25;97706.28;;;19.32;51.41
46366;BME280;72328;49.570;8.722;2023-10-19T05:52:26;97704.91;;;19.30;51.23
46366;BME280;72328;49.570;8.722;2023-10-19T05:56:32;97704.50;;;19.26;51.25
46366;BME280;72328;49.570;8.722;2023-10-19T06:00:34;97710.13;;;19.23;51.27
46366;BME280;72328;49.570;8.722;2023-10-19T06:04:35;97715.34;;;19.23;51.64
46366;BME280;72328;49.570;8.722;2023-10-19T06:08:36;97710.53;;;19.20;51.28
46366;BME280;72328;49.570;8.722;2023-10-19T06:12:36;97715.75;;;19.20;51.22
46366;BME280;72328;49.570;8.722;2023-10-19T06:16:37;97730.00;;;19.18;51.30
46366;BME280;72328;49.570;8.722;2023-10-19T06:20:43;97717.38;;;19.15;51.57
46366;BME280;72328;49.570;8.722;2023-10-19T06:24:44;97718.19;;;19.15;51.56
46366;BME280;72328;49.570;8.722;2023-10-19T06:28:45;97721.16;;;19.19;51.38
46366;BME280;72328;49.570;8.722;2023-10-19T06:32:47;97706.34;;;19.19;51.82
46366;BME280;72328;49.570;8.722;2023-10-19T06:36:48;97717.38;;;19.21;51.60
46366;BME280;72328;49.570;8.722;2023-10-19T06:40:51;97722.97;;;19.25;51.67
46366;BME280;72328;49.570;8.722;2023-10-19T06:44:52;97721.38;;;19.30;52.28
46366;BME280;72328;49.570;8.722;2023-10-19T06:48:54;97716.53;;;19.34;52.34
46366;BME280;72328;49.570;8.722;2023-10-19T06:53:00;97719.13;;;19.40;52.00
46366;BME280;72328;49.570;8.722;2023-10-19T06:57:03;97716.69;;;19.45;52.85
46366;BME280;72328;49.570;8.722;2023-10-19T07:01:07;97720.06;;;19.52;52.73
46366;BME280;72328;49.570;8.722;2023-10-19T07:05:12;97721.03;;;19.58;52.95
46366;BME280;72328;49.570;8.722;2023-10-19T07:09:14;97725.63;;;19.62;53.00
46366;BME280;72328;49.570;8.722;2023-10-19T07:13:15;97713.13;;;19.71;53.19
46366;BME280;72328;49.570;8.722;2023-10-19T07:17:16;97710.69;;;19.76;53.02
46366;BME280;72328;49.570;8.722;2023-10-19T07:21:17;97709.66;;;19.83;53.16
46366;BME280;72328;49.570;8.722;2023-10-19T07:25:18;97708.59;;;19.91;53.24
46366;BME280;72328;49.570;8.722;2023-10-19T07:29:21;97718.00;;;19.98;53.68
46366;BME280;72328;49.570;8.722;2023-10-19T07:33:25;97710.91;;;20.05;53.71
46366;BME280;72328;49.570;8.722;2023-10-19T07:37:26;97711.69;;;20.12;53.60
46366;BME280;72328;49.570;8.722;2023-10-19T07:41:29;97705.59;;;20.18;53.64
46366;BME280;72328;49.570;8.722;2023-10-19T07:45:35;97704.53;;;20.26;53.85
46366;BME280;72328;49.570;8.722;2023-10-19T07:49:37;97703.06;;;20.36;53.77
46366;BME280;72328;49.570;8.722;2023-10-19T07:53:41;97702.19;;;20.42;53.67
46366;BME280;72328;49.570;8.722;2023-10-19T07:57:45;97694.16;;;20.44;53.65
46366;BME280;72328;49.570;8.722;2023-10-19T08:01:45;97693.69;;;20.47;53.53
46366;BME280;72328;49.570;8.722;2023-10-19T08:05:46;97696.06;;;20.55;53.60
46366;BME280;72328;49.570;8.722;2023-10-19T08:09:47;97690.97;;;20.60;53.57
46366;BME280;72328;49.570;8.722;2023-10-19T08:13:48;97689.91;;;20.67;53.94
46366;BME280;72328;49.570;8.722;2023-10-19T08:17:51;97690.22;;;20.77;54.13
46366;BME280;72328;49.570;8.722;2023-10-19T08:21:55;97698.53;;;21.10;54.18
46366;BME280;72328;49.570;8.722;2023-10-19T08:25:57;97692.41;;;22.57;57.61
46366;BME280;72328;49.570;8.722;2023-10-19T08:29:57;97694.13;;;22.63;57.39
46366;BME280;72328;49.570;8.722;2023-10-19T08:33:58;97698.22;;;24.17;58.41
46366;BME280;72328;49.570;8.722;2023-10-19T08:37:58;97689.88;;;26.04;58.02
46366;BME280;72328;49.570;8.722;2023-10-19T08:41:59;97684.75;;;27.73;57.00
46366;BME280;72328;49.570;8.722;2023-10-19T08:46:00;97674.63;;;29.74;55.82
46366;BME280;72328;49.570;8.722;2023-10-19T08:50:02;97671.94;;;31.63;54.57
46366;BME280;72328;49.570;8.722;2023-10-19T08:54:03;97663.31;;;32.99;52.37
46366;BME280;72328;49.570;8.722;2023-10-19T08:58:05;97663.81;;;33.01;51.89
46366;BME280;72328;49.570;8.722;2023-10-19T09:02:06;97661.94;;;33.02;52.21
46366;BME280;72328;49.570;8.722;2023-10-19T09:06:07;97660.06;;;32.43;52.45
46366;BME280;72328;49.570;8.722;2023-10-19T09:10:08;97661.19;;;31.92;53.76
46366;BME280;72328;49.570;8.722;2023-10-19T09:14:15;97648.38;;;31.15;54.29
46366;BME280;72328;49.570;8.722;2023-10-19T09:18:20;97658.78;;;30.64;55.53
46366;BME280;72328;49.570;8.722;2023-10-19T09:22:21;97647.94;;;30.32;55.95
46366;BME280;72328;49.570;8.722;2023-10-19T09:26:24;97651.28;;;30.09;56.73
46366;BME280;72328;49.570;8.722;2023-10-19T09:30:25;97642.63;;;29.99;56.86
46366;BME280;72328;49.570;8.722;2023-10-19T09:34:26;97649.06;;;29.88;55.92
46366;BME280;72328;49.570;8.722;2023-10-19T09:38:32;97648.03;;;29.84;54.14
46366;BME280;72328;49.570;8.722;2023-10-19T09:42:33;97642.44;;;29.85;52.25
46366;BME280;72328;49.570;8.722;2023-10-19T09:46:34;97645.03;;;29.52;51.64
46366;BME280;72328;49.570;8.722;2023-10-19T09:50:39;97632.28;;;28.95;52.54
46366;BME280;72328;49.570;8.722;2023-10-19T09:58:55;97621.03;;;28.35;52.04
46366;BME280;72328;49.570;8.722;2023-10-19T10:02:57;97626.09;;;28.16;51.84
46366;BME280;72328;49.570;8.722;2023-10-19T10:06:58;97622.38;;;27.97;50.85
46366;BME280;72328;49.570;8.722;2023-10-19T10:11:12;97625.03;;;28.02;50.90
46366;BME280;72328;49.570;8.722;2023-10-19T10:15:13;97630.31;;;28.37;49.72
46366;BME280;72328;49.570;8.722;2023-10-19T10:19:20;97631.41;;;29.25;48.70
46366;BME280;72328;49.570;8.722;2023-10-19T10:23:21;97625.69;;;28.98;49.24
46366;BME280;72328;49.570;8.722;2023-10-19T10:27:25;97620.66;;;28.86;49.66
46366;BME280;72328;49.570;8.722;2023-10-19T10:31:26;97617.78;;;28.78;49.95
46366;BME280;72328;49.570;8.722;2023-10-19T10:39:38;97614.19;;;28.14;49.11
46366;BME280;72328;49.570;8.722;2023-10-19T10:43:55;97616.56;;;27.80;48.66
46366;BME280;72328;49.570;8.722;2023-10-19T10:47:56;97610.94;;;27.47;48.39
46366;BME280;72328;49.570;8.722;2023-10-19T10:51:57;97617.44;;;27.14;47.98
46366;BME280;72328;49.570;8.722;2023-10-19T10:56:00;97613.59;;;26.75;48.09
46366;BME280;72328;49.570;8.722;2023-10-19T11:00:05;97604.69;;;26.45;48.19
46366;BME280;72328;49.570;8.722;2023-10-19T11:04:20;97608.47;;;26.17;47.93
46366;BME280;72328;49.570;8.722;2023-10-19T11:08:24;97604.59;;;25.93;47.65
46366;BME280;72328;49.570;8.722;2023-10-19T11:12:24;97607.53;;;25.70;47.88
46366;BME280;72328;49.570;8.722;2023-10-19T11:16:25;97610.50;;;25.47;47.93
46366;BME280;72328;49.570;8.722;2023-10-19T11:20:26;97604.50;;;25.30;47.74
46366;BME280;72328;49.570;8.722;2023-10-19T11:24:29;97602.47;;;25.16;47.94
46366;BME280;72328;49.570;8.722;2023-10-19T11:28:38;97599.69;;;25.01;47.81
46366;BME280;72328;49.570;8.722;2023-10-19T11:32:43;97593.22;;;24.87;47.76
46366;BME280;72328;49.570;8.722;2023-10-19T11:36:46;97594.91;;;24.76;47.48
46366;BME280;72328;49.570;8.722;2023-10-19T11:40:46;97595.03;;;24.65;47.59
46366;BME280;72328;49.570;8.722;2023-10-19T11:44:47;97587.03;;;24.38;47.89
46366;BME280;72328;49.570;8.722;2023-10-19T11:48:48;97591.53;;;24.21;47.76
46366;BME280;72328;49.570;8.722;2023-10-19T11:52:49;97578.53;;;24.15;47.86
46366;BME280;72328;49.570;8.722;2023-10-19T11:56:49;97585.53;;;24.09;47.94
46366;BME280;72328;49.570;8.722;2023-10-19T12:00:50;97564.38;;;23.99;47.68
46366;BME280;72328;49.570;8.722;2023-10-19T12:04:52;97556.41;;;23.94;47.85
46366;BME280;72328;49.570;8.722;2023-10-19T12:08:53;97543.97;;;23.90;47.63
46366;BME280;72328;49.570;8.722;2023-10-19T12:12:56;97544.66;;;23.85;47.74
46366;BME280;72328;49.570;8.722;2023-10-19T12:16:57;97534.88;;;23.81;47.78
46366;BME280;72328;49.570;8.722;2023-10-19T12:21:01;97529.53;;;23.76;47.99
46366;BME280;72328;49.570;8.722;2023-10-19T12:25:04;97525.25;;;23.70;47.70
46366;BME280;72328;49.570;8.722;2023-10-19T12:29:05;97513.31;;;23.62;47.91
46366;BME280;72328;49.570;8.722;2023-10-19T12:33:10;97517.91;;;23.55;47.98
46366;BME280;72328;49.570;8.722;2023-10-19T12:37:14;97519.41;;;23.51;48.14
46366;BME280;72328;49.570;8.722;2023-10-19T12:41:14;97520.94;;;23.47;47.99
46366;BME280;72328;49.570;8.722;2023-10-19T12:45:15;97525.88;;;23.44;47.88
46366;BME280;72328;49.570;8.722;2023-10-19T12:49:17;97530.34;;;23.43;47.84
46366;BME280;72328;49.570;8.722;2023-10-19T12:53:19;97539.72;;;23.39;48.51
46366;BME280;72328;49.570;8.722;2023-10-19T12:57:22;97537.22;;;23.33;48.47
46366;BME280;72328;49.570;8.722;2023-10-19T13:01:24;97527.94;;;23.25;48.21
46366;BME280;72328;49.570;8.722;2023-10-19T13:05:24;97532.53;;;23.18;48.51
46366;BME280;72328;49.570;8.722;2023-10-19T13:09:26;97539.75;;;23.00;48.56
46366;BME280;72328;49.570;8.722;2023-10-19T13:13:33;97539.34;;;22.91;48.55
46366;BME280;72328;49.570;8.722;2023-10-19T13:17:36;97534.09;;;22.91;48.80
46366;BME280;72328;49.570;8.722;2023-10-19T13:21:37;97532.06;;;22.93;48.93
46366;BME280;72328;49.570;8.722;2023-10-19T13:25:39;97535.00;;;22.97;49.18
46366;BME280;72328;49.570;8.722;2023-10-19T13:29:41;97531.66;;;23.01;49.04
46366;BME280;72328;49.570;8.722;2023-10-19T13:33:42;97535.66;;;23.04;48.99
46366;BME280;72328;49.570;8.722;2023-10-19T13:37:44;97531.19;;;23.04;49.25
46366;BME280;72328;49.570;8.722;2023-10-19T13:41:45;97529.13;;;23.06;49.00
46366;BME280;72328;49.570;8.722;2023-10-19T13:45:47;97523.06;;;23.06;48.80
46366;BME280;72328;49.570;8.722;2023-10-19T13:49:48;97524.09;;;23.05;49.27
46366;BME280;72328;49.570;8.722;2023-10-19T13:53:48;97517.03;;;23.05;49.08
46366;BME280;72328;49.570;8.722;2023-10-19T13:57:53;97498.66;;;23.05;49.23
46366;BME280;72328;49.570;8.722;2023-10-19T14:01:55;97495.47;;;23.03;49.40
46366;BME280;72328;49.570;8.722;2023-10-19T14:05:56;97496.28;;;23.04;48.96
46366;BME280;72328;49.570;8.722;2023-10-19T14:09:56;97495.47;;;23.03;49.04
46366;BME280;72328;49.570;8.722;2023-10-19T14:13:57;97477.34;;;23.02;49.40
46366;BME280;72328;49.570;8.722;2023-10-19T14:17:58;97479.16;;;23.01;49.31
46366;BME280;72328;49.570;8.722;2023-10-19T14:21:58;97469.13;;;22.98;49.37
46366;BME280;72328;49.570;8.722;2023-10-19T14:25:59;97457.53;;;22.94;49.29
46366;BME280;72328;49.570;8.722;2023-10-19T14:30:00;97446.13;;;22.89;49.48
46366;BME280;72328;49.570;8.722;2023-10-19T14:34:03;97431.56;;;22.81;49.44
46366;BME280;72328;49.570;8.722;2023-10-19T14:38:04;97399.44;;;22.74;49.62
46366;BME280;72328;49.570;8.722;2023-10-19T14:42:06;97372.31;;;22.69;49.60
46366;BME280;72328;49.570;8.722;2023-10-19T14:46:08;97374.59;;;22.65;49.64
46366;BME280;72328;49.570;8.722;2023-10-19T14:50:10;97391.28;;;22.59;49.81
46366;BME280;72328;49.570;8.722;2023-10-19T14:54:12;97398.44;;;22.47;49.66
46366;BME280;72328;49.570;8.722;2023-10-19T14:58:12;97390.34;;;22.37;50.04
46366;BME280;72328;49.570;8.722;2023-10-19T15:02:13;97372.13;;;22.31;50.02
46366;BME280;72328;49.570;8.722;2023-10-19T15:06:14;97347.41;;;22.27;49.70
46366;BME280;72328;49.570;8.722;2023-10-19T15:10:22;97325.66;;;22.26;50.04
46366;BME280;72328;49.570;8.722;2023-10-19T15:14:23;97327.13;;;22.22;50.01
46366;BME280;72328;49.570;8.722;2023-10-19T15:18:25;97305.03;;;22.18;50.16
46366;BME280;72328;49.570;8.722;2023-10-19T15:22:26;97325.91;;;22.13;50.01
46366;BME280;72328;49.570;8.722;2023-10-19T15:26:26;97308.28;;;22.09;50.43
46366;BME280;72328;49.570;8.722;2023-10-19T15:30:27;97320.25;;;22.05;50.48
46366;BME280;72328;49.570;8.722;2023-10-19T15:34:28;97317.41;;;22.06;50.60
46366;BME280;72328;49.570;8.722;2023-10-19T15:38:30;97309.53;;;22.06;50.72
46366;BME280;72328;49.570;8.722;2023-10-19T15:42:31;97295.72;;;22.11;50.69
46366;BME280;72328;49.570;8.722;2023-10-19T15:46:35;97274.28;;;22.14;50.80
46366;BME280;72328;49.570;8.722;2023-10-19T15:50:39;97266.19;;;22.15;50.34
46366;BME280;72328;49.570;8.722;2023-10-19T15:54:43;97292.88;;;22.12;50.33
46366;BME280;72328;49.570;8.722;2023-10-19T15:58:44;97298.84;;;22.08;50.31
46366;BME280;72328;49.570;8.722;2023-10-19T16:02:44;97286.66;;;22.02;50.33
46366;BME280;72328;49.570;8.722;2023-10-19T16:06:45;97263.22;;;21.95;50.27
46366;BME280;72328;49.570;8.722;2023-10-19T16:10:46;97274.31;;;21.86;50.43
46366;BME280;72328;49.570;8.722;2023-10-19T16:14:46;97281.19;;;21.75;50.49
46366;BME280;72328;49.570;8.722;2023-10-19T16:18:47;97296.34;;;21.62;50.58
46366;BME280;72328;49.570;8.722;2023-10-19T16:22:48;97286.81;;;21.44;50.99
46366;BME280;72328;49.570;8.722;2023-10-19T16:26:49;97287.72;;;21.38;50.82
46366;BME280;72328;49.570;8.722;2023-10-19T16:30:49;97275.56;;;21.32;50.70
46366;BME280;72328;49.570;8.722;2023-10-19T16:34:51;97290.13;;;21.28;50.57
46366;BME280;72328;49.570;8.722;2023-10-19T16:38:52;97304.81;;;21.29;50.81
46366;BME280;72328;49.570;8.722;2023-10-19T16:42:53;97291.72;;;21.29;50.90
46366;BME280;72328;49.570;8.722;2023-10-19T16:46:54;97302.19;;;21.29;50.56
46366;BME280;72328;49.570;8.722;2023-10-19T16:50:59;97307.69;;;21.28;50.47
46366;BME280;72328;49.570;8.722;2023-10-19T16:55:03;97305.72;;;21.23;50.43
46366;BME280;72328;49.570;8.722;2023-10-19T16:59:06;97307.47;;;21.18;50.73
46366;BME280;72328;49.570;8.722;2023-10-19T17:03:07;97306.19;;;21.09;50.59
46366;BME280;72328;49.570;8.722;2023-10-19T17:07:10;97288.47;;;20.99;50.72
46366;BME280;72328;49.570;8.722;2023-10-19T17:11:11;97295.38;;;20.94;50.71
46366;BME280;72328;49.570;8.722;2023-10-19T17:15:12;97305.28;;;20.92;50.66
46366;BME280;72328;49.570;8.722;2023-10-19T17:19:15;97308.78;;;20.86;50.50
46366;BME280;72328;49.570;8.722;2023-10-19T17:23:17;97314.56;;;20.76;50.87
46366;BME280;72328;49.570;8.722;2023-10-19T17:27:17;97311.28;;;20.69;51.17
46366;BME280;72328;49.570;8.722;2023-10-19T17:31:22;97320.22;;;20.62;51.38
46366;BME280;72328;49.570;8.722;2023-10-19T17:35:24;97307.50;;;20.54;51.39
46366;BME280;72328;49.570;8.722;2023-10-19T17:39:25;97305.88;;;20.53;51.60
46366;BME280;72328;49.570;8.722;2023-10-19T17:43:28;97308.28;;;20.54;51.79
46366;BME280;72328;49.570;8.722;2023-10-19T17:47:29;97297.81;;;20.54;51.94
46366;BME280;72328;49.570;8.722;2023-10-19T17:51:29;97300.91;;;20.51;52.01
46366;BME280;72328;49.570;8.722;2023-10-19T17:55:30;97285.09;;;20.46;52.19
46366;BME280;72328;49.570;8.722;2023-10-19T17:59:32;97303.06;;;20.54;52.21
46366;BME280;72328;49.570;8.722;2023-10-19T18:03:33;97289.97;;;20.54;52.19
46366;BME280;72328;49.570;8.722;2023-10-19T18:07:35;97301.59;;;20.58;52.37
46366;BME280;72328;49.570;8.722;2023-10-19T18:11:37;97282.47;;;20.58;51.98
46366;BME280;72328;49.570;8.722;2023-10-19T18:15:38;97274.88;;;20.56;52.29
46366;BME280;72328;49.570;8.722;2023-10-19T18:19:39;97271.13;;;20.52;52.46
46366;BME280;72328;49.570;8.722;2023-10-19T18:23:41;97263.16;;;20.47;52.80
46366;BME280;72328;49.570;8.722;2023-10-19T18:27:42;97248.16;;;20.43;53.05
46366;BME280;72328;49.570;8.722;2023-10-19T18:31:43;97252.91;;;20.46;52.98
46366;BME280;72328;49.570;8.722;2023-10-19T18:35:43;97250.78;;;20.43;52.92
46366;BME280;72328;49.570;8.722;2023-10-19T18:39:45;97233.25;;;20.43;53.19
46366;BME280;72328;49.570;8.722;2023-10-19T18:43:45;97231.31;;;20.39;53.31
46366;BME280;72328;49.570;8.722;2023-10-19T18:47:46;97236.69;;;20.44;53.31
46366;BME280;72328;49.570;8.722;2023-10-19T18:51:47;97230.19;;;20.46;52.97
46366;BME280;72328;49.570;8.722;2023-10-19T18:55:51;97228.69;;;20.50;53.07
46366;BME280;72328;49.570;8.722;2023-10-19T18:59:52;97229.50;;;20.51;53.06
46366;BME280;72328;49.570;8.722;2023-10-19T19:03:53;97218.84;;;20.52;52.79
46366;BME280;72328;49.570;8.722;2023-10-19T19:07:54;97205.97;;;20.51;53.12
46366;BME280;72328;49.570;8.722;2023-10-19T19:11:55;97216.66;;;20.49;53.09
46366;BME280;72328;49.570;8.722;2023-10-19T19:15:55;97207.78;;;20.50;53.23
46366;BME280;72328;49.570;8.722;2023-10-19T19:19:58;97195.75;;;20.49;53.44
46366;BME280;72328;49.570;8.722;2023-10-19T19:23:59;97183.72;;;20.48;53.33
46366;BME280;72328;49.570;8.722;2023-10-19T19:28:00;97175.63;;;20.50;53.30
46366;BME280;72328;49.570;8.722;2023-10-19T19:32:01;97171.44;;;20.49;53.11
46366;BME280;72328;49.570;8.722;2023-10-19T19:36:04;97185.75;;;20.46;53.38
46366;BME280;72328;49.570;8.722;2023-10-19T19:40:09;97167.34;;;20.41;54.11
46366;BME280;72328;49.570;8.722;2023-10-19T19:44:13;97175.75;;;20.43;53.71
46366;BME280;72328;49.570;8.722;2023-10-19T19:48:13;97182.94;;;20.48;53.82
46366;BME280;72328;49.570;8.722;2023-10-19T19:52:14;97185.41;;;20.43;53.78
46366;BME280;72328;49.570;8.722;2023-10-19T19:56:15;97199.84;;;20.45;53.93
46366;BME280;72328;49.570;8.722;2023-10-19T20:00:16;97208.47;;;20.46;54.11
46366;BME280;72328;49.570;8.722;2023-10-19T20:04:17;97198.25;;;20.33;54.30
46366;BME280;72328;49.570;8.722;2023-10-19T20:08:17;97184.25;;;20.16;54.59
46366;BME280;72328;49.570;8.722;2023-10-19T20:12:18;97190.47;;;20.03;54.63
46366;BME280;72328;49.570;8.722;2023-10-19T20:16:19;97187.81;;;19.92;54.77
46366;BME280;72328;49.570;8.722;2023-10-19T20:20:19;97191.75;;;19.83;54.42
46366;BME280;72328;49.570;8.722;2023-10-19T20:24:23;97194.44;;;19.76;54.60
46366;BME280;72328;49.570;8.722;2023-10-19T20:28:24;97181.72;;;19.68;55.10
46366;BME280;72328;49.570;8.722;2023-10-19T20:32:25;97184.22;;;19.63;54.88
46366;BME280;72328;49.570;8.722;2023-10-19T20:36:25;97170.66;;;19.55;55.23
46366;BME280;72328;49.570;8.722;2023-10-19T20:40:26;97160.31;;;19.48;55.44
46366;BME280;72328;49.570;8.722;2023-10-19T20:44:31;97158.38;;;19.44;55.44
46366;BME280;72328;49.570;8.722;2023-10-19T20:48:40;97142.94;;;19.42;55.48
46366;BME280;72328;49.570;8.722;2023-10-19T20:52:41;97139.50;;;19.42;55.26
46366;BME280;72328;49.570;8.722;2023-10-19T20:56:42;97130.69;;;19.43;55.27
46366;BME280;72328;49.570;8.722;2023-10-19T21:00:43;97131.03;;;19.46;55.29
46366;BME280;72328;49.570;8.722;2023-10-19T21:04:43;97146.47;;;19.48;55.32
46366;BME280;72328;49.570;8.722;2023-10-19T21:08:44;97143.06;;;19.47;55.54
46366;BME280;72328;49.570;8.722;2023-10-19T21:12:45;97137.03;;;19.47;55.51
46366;BME280;72328;49.570;8.722;2023-10-19T21:16:46;97123.22;;;19.46;55.59
46366;BME280;72328;49.570;8.722;2023-10-19T21:20:54;97107.22;;;19.43;55.66
46366;BME280;72328;49.570;8.722;2023-10-19T21:24:55;97094.38;;;19.41;56.16
46366;BME280;72328;49.570;8.722;2023-10-19T21:28:56;97092.41;;;19.37;56.33
46366;BME280;72328;49.570;8.722;2023-10-19T21:32:59;97089.81;;;19.37;56.24